KCVO/CVO METAR and TAF weather

Enter ICAO airport designator
Station Type Date Time Source
KCVO METAR 2019/12/14 05:56 UTC NOAA

KCVO 140556Z AUTO 00000KT 1/4SM FG BKN002 02/02 A3007 RMK AO2 SLP185 T00220022 10089 20022 53009 FZRANO RVRNO


Station Type Date Time Source
KCVO Decoded METAR 2019/12/14 05:56 UTC NOAA

Corvallis, Corvallis Municipal Airport, OR, United States (KCVO) 44-30N 123-17W
Dec 14, 2019 - 12:56 AM EST / 2019.12.14 0556 UTC
Wind: Calm:0
Visibility: 1/4 mile(s):0
Sky conditions: mostly cloudy
Weather: fog
Temperature: 36.0 F (2.2 C)
Dew Point: 36.0 F (2.2 C)
Relative Humidity: 100%
Pressure (altimeter): 30.07 in. Hg (1018 hPa)
Pressure tendency: 0.03 inches (0.9 hPa) higher than three hours ago
ob: KCVO 140556Z AUTO 00000KT 1/4SM FG BKN002 02/02 A3007 RMK AO2 SLP185 T00220022 10089 20022 53009 FZRANO RVRNO
cycle: 6

Station Type Date Time Source
KCVO TAF UTC NOAA

Error!

Example: see airport list